Observation data for O'Donnell on 05/24/2019      Previous  Date  Next       Current Mesonet Observations  Soil Data  Daily Summary Page  Observations in Plain Language
KOES 240500Z 16009KT 24/17 A299 RMK A01 T02370169  RH  069%=      5-min Rain = 0
KOES 240505Z 16010G15KT 24/17 A299 RMK A01 T02380169  RH  069%=      5-min Rain = 0
KOES 240510Z 16008G15KT 24/17 A299 RMK A01 T02380169  RH  069%=      5-min Rain = 0
KOES 240515Z 16009G14KT 24/17 A299 RMK A01 T02380169  RH  068%=      5-min Rain = 0
KOES 240520Z 16008KT 24/17 A2991 RMK A01 T02380169  RH  069%=      5-min Rain = 0
KOES 240525Z 16009G14KT 24/17 A2991 RMK A01 T02380169  RH  069%=      5-min Rain = 0
KOES 240530Z 16011G16KT 24/17 A2991 RMK A01 T02380169  RH  068%=      5-min Rain = 0
KOES 240535Z 16009G14KT 24/17 A2991 RMK A01 T02380169  RH  068%=      5-min Rain = 0
KOES 240540Z 16010G18KT 24/17 A2991 RMK A01 T02380168  RH  068%=      5-min Rain = 0
KOES 240545Z 16012G17KT 24/17 A2991 RMK A01 T02380168  RH  068%=      5-min Rain = 0
KOES 240550Z 16013G18KT 24/17 A2991 RMK A01 T02380168  RH  068%=      5-min Rain = 0
KOES 240555Z 16011G17KT 24/17 A2991 RMK A01 T02380168  RH  068%=      5-min Rain = 0
KOES 240600Z 17011KT 24/17 A2991 RMK A01 T02370169  RH  069%=      5-min Rain = 0
KOES 240605Z 16011KT 24/17 A2991 RMK A01 T02370169  RH  069%=      5-min Rain = 0
KOES 240610Z 17008G13KT 24/17 A2991 RMK A01 T02360169  RH  069%=      5-min Rain = 0
KOES 240615Z 16008KT 24/17 A2991 RMK A01 T02360169  RH  070%=      5-min Rain = 0
KOES 240620Z 17007G12KT 24/17 A2992 RMK A01 T02350169  RH  070%=      5-min Rain = 0
KOES 240625Z 17008G13KT 24/17 A2992 RMK A01 T02350169  RH  070%=      5-min Rain = 0
KOES 240630Z 16008KT 24/17 A2992 RMK A01 T02350170  RH  070%=      5-min Rain = 0
KOES 240635Z 16007KT 24/17 A2993 RMK A01 T02350170  RH  070%=      5-min Rain = 0
KOES 240640Z 15005KT 24/17 A2993 RMK A01 T02350170  RH  070%=      5-min Rain = 0
KOES 240645Z 14004KT 23/17 A2993 RMK A01 T02340170  RH  071%=      5-min Rain = 0
KOES 240650Z 10005KT 23/16 A2994 RMK A01 T02330160  RH  067%=      5-min Rain = 0
KOES 240655Z 01008G14KT 22/13 A2994 RMK A01 T02190129  RH  059%=      5-min Rain = 0
KOES 240700Z 00014KT 21/12 A2994 RMK A01 T02050115  RH  058%=      5-min Rain = 0
KOES 240705Z 00015KT 20/11 A2994 RMK A01 T01990114  RH  060%=      5-min Rain = 0
KOES 240710Z 01014KT 20/11 A2994 RMK A01 T01980114  RH  061%=      5-min Rain = 0
KOES 240715Z 00012KT 20/12 A2994 RMK A01 T01970115  RH  061%=      5-min Rain = 0
KOES 240720Z 01010KT 20/12 A2994 RMK A01 T01960116  RH  062%=      5-min Rain = 0
KOES 240725Z 02010KT 20/12 A2994 RMK A01 T01970119  RH  063%=      5-min Rain = 0
KOES 240730Z 01010KT 20/12 A2994 RMK A01 T01960122  RH  065%=      5-min Rain = 0
KOES 240735Z 02010KT 19/13 A2994 RMK A01 T01940127  RH  068%=      5-min Rain = 0
KOES 240740Z 02011KT 19/13 A2994 RMK A01 T01920129  RH  070%=      5-min Rain = 0
KOES 240745Z 01015KT 19/13 A2994 RMK A01 T01880134  RH  074%=      5-min Rain = 0
KOES 240750Z 01014KT 18/14 A2994 RMK A01 T01790138  RH  080%=      5-min Rain = 0
KOES 240755Z 01015KT 17/14 A2994 RMK A01 T01740140  RH  084%=      5-min Rain = 0
KOES 240800Z 34013KT 17/14 A2994 RMK A01 T01710142  RH  087%=      5-min Rain = 0.01
KOES 240805Z 35012KT 17/14 A2995 RMK A01 T01680142  RH  088%=      5-min Rain = 0.01
KOES 240810Z 36011KT 17/14 A2995 RMK A01 T01660143  RH  090%=      5-min Rain = 0.02
KOES 240815Z 35012KT 17/14 A2995 RMK A01 T01660144  RH  091%=      5-min Rain = 0.01
KOES 240820Z 01011KT 17/15 A2995 RMK A01 T01660150  RH  095%=      5-min Rain = 0.01
KOES 240825Z 01012KT 17/15 A2995 RMK A01 T01650154  RH  098%=      5-min Rain = 0
KOES 240830Z 02011KT 17/16 A2995 RMK A01 T01650155  RH  098%=      5-min Rain = 0.01
KOES 240835Z 02012KT 16/16 A2995 RMK A01 T01640155  RH  099%=      5-min Rain = 0.01
KOES 240840Z 03012KT 16/16 A2995 RMK A01 T01640155  RH  099%=      5-min Rain = 0
KOES 240845Z 03013KT 16/16 A2994 RMK A01 T01640155  RH  099%=      5-min Rain = 0
KOES 240850Z 04011KT 16/16 A2994 RMK A01 T01640155  RH  099%=      5-min Rain = 0
KOES 240855Z 05012KT 16/16 A2994 RMK A01 T01640155  RH  099%=      5-min Rain = 0.01
KOES 240900Z 06010KT 17/16 A2994 RMK A01 T01650156  RH  099%=      5-min Rain = 0
KOES 240905Z 06012KT 17/16 A2993 RMK A01 T01660158  RH  099%=      5-min Rain = 0
KOES 240910Z 06010KT 17/16 A2993 RMK A01 T01670157  RH  099%=      5-min Rain = 0
KOES 240915Z 07010KT 17/16 A2993 RMK A01 T01670157  RH  099%=      5-min Rain = 0
KOES 240920Z 06012KT 17/16 A2993 RMK A01 T01670157  RH  098%=      5-min Rain = 0
KOES 240925Z 07011KT 17/16 A2993 RMK A01 T01670158  RH  099%=      5-min Rain = 0
KOES 240930Z 07010KT 17/16 A2993 RMK A01 T01680159  RH  099%=      5-min Rain = 0
KOES 240935Z 07009KT 17/16 A2993 RMK A01 T01690159  RH  098%=      5-min Rain = 0
KOES 240940Z 07010KT 17/16 A2993 RMK A01 T01690159  RH  098%=      5-min Rain = 0
KOES 240945Z 07010KT 17/16 A2994 RMK A01 T01690158  RH  098%=      5-min Rain = 0
KOES 240950Z 07009KT 17/16 A2994 RMK A01 T01690156  RH  097%=      5-min Rain = 0
KOES 240955Z 07009KT 17/16 A2994 RMK A01 T01690158  RH  097%=      5-min Rain = 0
KOES 241000Z 06008KT 17/16 A2994 RMK A01 T01700156  RH  096%=      5-min Rain = 0
KOES 241005Z 06008KT 17/16 A2994 RMK A01 T01700156  RH  095%=      5-min Rain = 0
KOES 241010Z 06008KT 17/16 A2994 RMK A01 T01710155  RH  095%=      5-min Rain = 0
KOES 241015Z 06008KT 17/15 A2994 RMK A01 T01710153  RH  093%=      5-min Rain = 0
KOES 241020Z 05008KT 17/15 A2994 RMK A01 T01710148  RH  091%=      5-min Rain = 0
KOES 241025Z 06008KT 17/15 A2994 RMK A01 T01710148  RH  090%=      5-min Rain = 0
KOES 241030Z 05008KT 17/15 A2995 RMK A01 T01710148  RH  090%=      5-min Rain = 0
KOES 241035Z 05008KT 17/15 A2994 RMK A01 T01720148  RH  090%=      5-min Rain = 0
KOES 241040Z 05008KT 17/15 A2994 RMK A01 T01720148  RH  090%=      5-min Rain = 0
KOES 241045Z 05008KT 17/15 A2994 RMK A01 T01730148  RH  089%=      5-min Rain = 0
KOES 241050Z 06008KT 17/15 A2994 RMK A01 T01730147  RH  089%=      5-min Rain = 0
KOES 241055Z 07008KT 17/15 A2994 RMK A01 T01730148  RH  089%=      5-min Rain = 0
KOES 241100Z 07009KT 17/15 A2994 RMK A01 T01730149  RH  089%=      5-min Rain = 0
KOES 241105Z 07009KT 17/15 A2994 RMK A01 T01740150  RH  089%=      5-min Rain = 0
KOES 241110Z 07009KT 18/15 A2994 RMK A01 T01750150  RH  089%=      5-min Rain = 0
KOES 241115Z 07009KT 18/15 A2994 RMK A01 T01750149  RH  088%=      5-min Rain = 0
KOES 241120Z 06008KT 18/15 A2994 RMK A01 T01750150  RH  089%=      5-min Rain = 0
KOES 241125Z 06007KT 18/15 A2994 RMK A01 T01750151  RH  090%=      5-min Rain = 0
KOES 241130Z 06008KT 18/15 A2994 RMK A01 T01750151  RH  090%=      5-min Rain = 0
KOES 241135Z 06008KT 18/15 A2994 RMK A01 T01750151  RH  090%=      5-min Rain = 0
KOES 241140Z 06008KT 18/15 A2994 RMK A01 T01750152  RH  090%=      5-min Rain = 0
KOES 241145Z 06008KT 18/15 A2994 RMK A01 T01760154  RH  091%=      5-min Rain = 0
KOES 241150Z 07009KT 18/15 A2994 RMK A01 T01760153  RH  090%=      5-min Rain = 0
KOES 241155Z 06009KT 18/15 A2995 RMK A01 T01760152  RH  090%=      5-min Rain = 0
KOES 241200Z 07009KT 18/15 A2995 RMK A01 T01760153  RH  090%=      5-min Rain = 0
KOES 241205Z 07009KT 18/15 A2994 RMK A01 T01750152  RH  090%=      5-min Rain = 0
KOES 241210Z 07009KT 18/15 A2994 RMK A01 T01750153  RH  091%=      5-min Rain = 0
KOES 241215Z 07010KT 18/15 A2994 RMK A01 T01750154  RH  092%=      5-min Rain = 0
KOES 241220Z 07009KT 18/16 A2994 RMK A01 T01750156  RH  092%=      5-min Rain = 0
KOES 241225Z 07009KT 18/16 A2994 RMK A01 T01750157  RH  093%=      5-min Rain = 0
KOES 241230Z 07010KT 18/16 A2994 RMK A01 T01750160  RH  095%=      5-min Rain = 0
KOES 241235Z 07010KT 18/16 A2994 RMK A01 T01750163  RH  097%=      5-min Rain = 0
KOES 241240Z 06007KT 18/16 A2995 RMK A01 T01750164  RH  098%=      5-min Rain = 0
KOES 241245Z 05006KT 18/17 A2995 RMK A01 T01760165  RH  098%=      5-min Rain = 0
KOES 241250Z 05006KT 18/17 A2996 RMK A01 T01770166  RH  098%=      5-min Rain = 0
KOES 241255Z 06006KT 18/17 A2996 RMK A01 T01780168  RH  098%=      5-min Rain = 0
KOES 241300Z 05005KT 18/17 A2996 RMK A01 T01790169  RH  099%=      5-min Rain = 0
KOES 241305Z 06005KT 18/17 A2996 RMK A01 T01790169  RH  099%=      5-min Rain = 0
KOES 241310Z 06005KT 18/17 A2996 RMK A01 T01810171  RH  099%=      5-min Rain = 0
KOES 241315Z 06005KT 18/17 A2996 RMK A01 T01820172  RH  099%=      5-min Rain = 0
KOES 241320Z 08005KT 18/18 A2996 RMK A01 T01840175  RH  099%=      5-min Rain = 0
KOES 241325Z 08006KT 19/18 A2996 RMK A01 T01850175  RH  099%=      5-min Rain = 0
KOES 241330Z 07006KT 19/18 A2996 RMK A01 T01870177  RH  099%=      5-min Rain = 0
KOES 241335Z 07007KT 19/18 A2996 RMK A01 T01890179  RH  099%=      5-min Rain = 0
KOES 241340Z 08006KT 19/18 A2996 RMK A01 T01910182  RH  099%=      5-min Rain = 0
KOES 241345Z 09007KT 19/18 A2996 RMK A01 T01930183  RH  099%=      5-min Rain = 0
KOES 241350Z 10006KT 19/19 A2996 RMK A01 T01940185  RH  100%=      5-min Rain = 0
KOES 241355Z 10007KT 20/19 A2996 RMK A01 T01970188  RH  100%=      5-min Rain = 0
KOES 241400Z 10006KT 20/19 A2996 RMK A01 T01990189  RH  099%=      5-min Rain = 0
KOES 241405Z 12007KT 20/19 A2996 RMK A01 T02020192  RH  099%=      5-min Rain = 0
KOES 241410Z 12007KT 21/20 A2996 RMK A01 T02050195  RH  099%=      5-min Rain = 0
KOES 241415Z 12008KT 21/20 A2996 RMK A01 T02080195  RH  098%=      5-min Rain = 0
KOES 241420Z 12008KT 21/20 A2996 RMK A01 T02090195  RH  097%=      5-min Rain = 0
KOES 241425Z 13008KT 21/19 A2997 RMK A01 T02110192  RH  094%=      5-min Rain = 0
KOES 241430Z 14008KT 21/19 A2997 RMK A01 T02110190  RH  093%=      5-min Rain = 0
KOES 241435Z 14008KT 21/19 A2997 RMK A01 T02120188  RH  091%=      5-min Rain = 0
KOES 241440Z 15007KT 21/19 A2997 RMK A01 T02120188  RH  091%=      5-min Rain = 0
KOES 241445Z 14008KT 21/19 A2997 RMK A01 T02140188  RH  090%=      5-min Rain = 0
KOES 241450Z 14008KT 22/19 A2997 RMK A01 T02160188  RH  089%=      5-min Rain = 0
KOES 241455Z 14007KT 22/19 A2997 RMK A01 T02170189  RH  088%=      5-min Rain = 0
KOES 241500Z 15008KT 22/19 A2997 RMK A01 T02200190  RH  088%=      5-min Rain = 0
KOES 241505Z 15008KT 22/19 A2997 RMK A01 T02220190  RH  087%=      5-min Rain = 0
KOES 241510Z 16006KT 23/20 A2997 RMK A01 T02280195  RH  086%=      5-min Rain = 0
KOES 241515Z 16009KT 23/19 A2997 RMK A01 T02330192  RH  082%=      5-min Rain = 0
KOES 241520Z 16009KT 23/19 A2997 RMK A01 T02320191  RH  082%=      5-min Rain = 0
KOES 241525Z 16009KT 23/19 A2997 RMK A01 T02340193  RH  082%=      5-min Rain = 0
KOES 241530Z 15011KT 24/19 A2997 RMK A01 T02370192  RH  080%=      5-min Rain = 0
KOES 241535Z 15011KT 24/19 A2997 RMK A01 T02380193  RH  081%=      5-min Rain = 0
KOES 241540Z 14011KT 24/20 A2997 RMK A01 T02420195  RH  079%=      5-min Rain = 0
KOES 241545Z 14011KT 24/20 A2997 RMK A01 T02430196  RH  079%=      5-min Rain = 0
KOES 241550Z 13011KT 24/20 A2997 RMK A01 T02430196  RH  079%=      5-min Rain = 0
KOES 241555Z 14011KT 24/20 A2997 RMK A01 T02420196  RH  080%=      5-min Rain = 0
KOES 241600Z 14011KT 25/20 A2997 RMK A01 T02450197  RH  079%=      5-min Rain = 0
KOES 241605Z 14011KT 25/20 A2997 RMK A01 T02470196  RH  078%=      5-min Rain = 0
KOES 241610Z 15010G15KT 25/20 A2997 RMK A01 T02480196  RH  077%=      5-min Rain = 0
KOES 241615Z 14010G15KT 25/20 A2997 RMK A01 T02520197  RH  076%=      5-min Rain = 0
KOES 241620Z 13009KT 25/20 A2997 RMK A01 T02480198  RH  078%=      5-min Rain = 0
KOES 241625Z 14010KT 25/20 A2997 RMK A01 T02470199  RH  079%=      5-min Rain = 0
KOES 241630Z 14010KT 24/20 A2997 RMK A01 T02430197  RH  080%=      5-min Rain = 0
KOES 241635Z 12011KT 24/20 A2997 RMK A01 T02440198  RH  080%=      5-min Rain = 0
KOES 241640Z 13010KT 25/20 A2997 RMK A01 T02450197  RH  079%=      5-min Rain = 0
KOES 241645Z 12010KT 25/20 A2997 RMK A01 T02470197  RH  078%=      5-min Rain = 0
KOES 241650Z 12010KT 25/20 A2997 RMK A01 T02460197  RH  078%=      5-min Rain = 0
KOES 241655Z 13009KT 25/20 A2997 RMK A01 T02490199  RH  078%=      5-min Rain = 0
KOES 241700Z 14011KT 25/19 A2996 RMK A01 T02540194  RH  073%=      5-min Rain = 0
KOES 241705Z 17010KT 26/19 A2996 RMK A01 T02580188  RH  069%=      5-min Rain = 0
KOES 241710Z 16010KT 26/19 A2996 RMK A01 T02630186  RH  066%=      5-min Rain = 0
KOES 241715Z 16012G17KT 27/18 A2996 RMK A01 T02660184  RH  064%=      5-min Rain = 0
KOES 241720Z 16013G18KT 26/19 A2996 RMK A01 T02640185  RH  065%=      5-min Rain = 0
KOES 241725Z 16012G17KT 26/19 A2996 RMK A01 T02620185  RH  066%=      5-min Rain = 0
KOES 241730Z 17011G18KT 26/19 A2996 RMK A01 T02630185  RH  066%=      5-min Rain = 0
KOES 241735Z 17011G16KT 26/18 A2996 RMK A01 T02640181  RH  064%=      5-min Rain = 0
KOES 241740Z 17011G17KT 27/18 A2995 RMK A01 T02670183  RH  063%=      5-min Rain = 0
KOES 241745Z 17011G18KT 27/18 A2995 RMK A01 T02700181  RH  061%=      5-min Rain = 0
KOES 241750Z 16010KT 27/18 A2995 RMK A01 T02670182  RH  063%=      5-min Rain = 0
KOES 241755Z 15010KT 27/19 A2995 RMK A01 T02650186  RH  065%=      5-min Rain = 0
KOES 241800Z 16011G16KT 27/19 A2994 RMK A01 T02710186  RH  063%=      5-min Rain = 0
KOES 241805Z 16012G18KT 27/18 A2994 RMK A01 T02700184  RH  062%=      5-min Rain = 0
KOES 241810Z 16012G19KT 27/18 A2994 RMK A01 T02710183  RH  062%=      5-min Rain = 0
KOES 241815Z 16012G17KT 27/18 A2993 RMK A01 T02740183  RH  061%=      5-min Rain = 0
KOES 241820Z 17010G15KT 28/18 A2993 RMK A01 T02760182  RH  060%=      5-min Rain = 0
KOES 241825Z 16012G21KT 27/18 A2993 RMK A01 T02710180  RH  060%=      5-min Rain = 0
KOES 241830Z 15014G20KT 28/18 A2992 RMK A01 T02760181  RH  059%=      5-min Rain = 0
KOES 241835Z 16013G19KT 28/18 A2992 RMK A01 T02830181  RH  057%=      5-min Rain = 0
KOES 241840Z 16014G20KT 28/18 A2992 RMK A01 T02830177  RH  055%=      5-min Rain = 0
KOES 241845Z 16015G23KT 28/18 A2992 RMK A01 T02790181  RH  058%=      5-min Rain = 0
KOES 241850Z 17017G24KT 28/18 A2992 RMK A01 T02820182  RH  058%=      5-min Rain = 0
KOES 241855Z 16017G24KT 28/18 A2992 RMK A01 T02820182  RH  058%=      5-min Rain = 0
KOES 241900Z 16015G22KT 28/18 A2992 RMK A01 T02800183  RH  059%=      5-min Rain = 0
KOES 241905Z 16014G20KT 28/18 A2991 RMK A01 T02770182  RH  059%=      5-min Rain = 0
KOES 241910Z 17013G19KT 28/19 A2992 RMK A01 T02790185  RH  060%=      5-min Rain = 0
KOES 241915Z 17015G22KT 28/18 A2992 RMK A01 T02760183  RH  060%=      5-min Rain = 0
KOES 241920Z 17014G19KT 27/18 A2992 RMK A01 T02730182  RH  061%=      5-min Rain = 0
KOES 241925Z 17014G20KT 28/18 A2992 RMK A01 T02770182  RH  059%=      5-min Rain = 0
KOES 241930Z 17012KT 28/19 A2991 RMK A01 T02820185  RH  059%=      5-min Rain = 0
KOES 241935Z 15011KT 29/19 A2991 RMK A01 T02860185  RH  057%=      5-min Rain = 0
KOES 241940Z 16010G16KT 29/19 A299 RMK A01 T02870185  RH  057%=      5-min Rain = 0
KOES 241945Z 18014G23KT 29/18 A299 RMK A01 T02860182  RH  056%=      5-min Rain = 0
KOES 241950Z 17017G26KT 29/18 A299 RMK A01 T02850178  RH  055%=      5-min Rain = 0
KOES 241955Z 17016G26KT 28/18 A299 RMK A01 T02830179  RH  056%=      5-min Rain = 0
KOES 242000Z 17015G25KT 29/18 A299 RMK A01 T02850177  RH  055%=      5-min Rain = 0
KOES 242005Z 17015G24KT 29/18 A299 RMK A01 T02890179  RH  054%=      5-min Rain = 0
KOES 242010Z 17016G23KT 29/18 A299 RMK A01 T02920178  RH  053%=      5-min Rain = 0
KOES 242015Z 18019G27KT 29/17 A2989 RMK A01 T02910174  RH  052%=      5-min Rain = 0
KOES 242020Z 18018G26KT 29/17 A2989 RMK A01 T02890172  RH  052%=      5-min Rain = 0
KOES 242025Z 17016G24KT 29/18 A2989 RMK A01 T02940175  RH  051%=      5-min Rain = 0
KOES 242030Z 17018G26KT 30/17 A2989 RMK A01 T02960174  RH  050%=      5-min Rain = 0
KOES 242035Z 17018G25KT 30/17 A2988 RMK A01 T02950172  RH  050%=      5-min Rain = 0
KOES 242040Z 18018G24KT 29/17 A2988 RMK A01 T02930172  RH  050%=      5-min Rain = 0
KOES 242045Z 17016G23KT 29/17 A2987 RMK A01 T02940174  RH  051%=      5-min Rain = 0
KOES 242050Z 17016G23KT 30/17 A2988 RMK A01 T02960172  RH  050%=      5-min Rain = 0
KOES 242055Z 17018G26KT 29/18 A2988 RMK A01 T02890175  RH  053%=      5-min Rain = 0
KOES 242100Z 17016G28KT 29/18 A2988 RMK A01 T02850177  RH  055%=      5-min Rain = 0
KOES 242105Z 17017G26KT 29/18 A2988 RMK A01 T02880175  RH  053%=      5-min Rain = 0
KOES 242110Z 17019G26KT 29/17 A2988 RMK A01 T02890172  RH  052%=      5-min Rain = 0
KOES 242115Z 16017G25KT 29/18 A2988 RMK A01 T02890175  RH  053%=      5-min Rain = 0
KOES 242120Z 17016G24KT 29/18 A2988 RMK A01 T02870178  RH  054%=      5-min Rain = 0
KOES 242125Z 17017G24KT 28/18 A2988 RMK A01 T02840176  RH  055%=      5-min Rain = 0
KOES 242130Z 17016G24KT 28/18 A2987 RMK A01 T02840176  RH  055%=      5-min Rain = 0
KOES 242135Z 17017G27KT 28/18 A2987 RMK A01 T02820178  RH  056%=      5-min Rain = 0
KOES 242140Z 16019G27KT 28/18 A2987 RMK A01 T02780177  RH  057%=      5-min Rain = 0
KOES 242145Z 16016G22KT 28/18 A2987 RMK A01 T02810179  RH  057%=      5-min Rain = 0
KOES 242150Z 17017G27KT 28/18 A2987 RMK A01 T02820179  RH  056%=      5-min Rain = 0
KOES 242155Z 16017G26KT 28/18 A2987 RMK A01 T02810177  RH  056%=      5-min Rain = 0
KOES 242200Z 16020G28KT 28/18 A2987 RMK A01 T02770175  RH  057%=      5-min Rain = 0
KOES 242205Z 16019G28KT 27/18 A2987 RMK A01 T02730175  RH  058%=      5-min Rain = 0
KOES 242210Z 18016G25KT 28/18 A2987 RMK A01 T02760176  RH  057%=      5-min Rain = 0
KOES 242215Z 17017G25KT 28/18 A2987 RMK A01 T02780176  RH  057%=      5-min Rain = 0
KOES 242220Z 16018G25KT 27/18 A2987 RMK A01 T02740175  RH  058%=      5-min Rain = 0
KOES 242225Z 17018G26KT 27/17 A2987 RMK A01 T02740174  RH  057%=      5-min Rain = 0
KOES 242230Z 17017G26KT 27/17 A2987 RMK A01 T02740174  RH  057%=      5-min Rain = 0
KOES 242235Z 17016G27KT 28/17 A2987 RMK A01 T02760174  RH  057%=      5-min Rain = 0
KOES 242240Z 18018G24KT 27/17 A2987 RMK A01 T02730174  RH  057%=      5-min Rain = 0
KOES 242245Z 17017G27KT 27/17 A2986 RMK A01 T02740174  RH  057%=      5-min Rain = 0
KOES 242250Z 17018G27KT 27/17 A2986 RMK A01 T02740174  RH  057%=      5-min Rain = 0
KOES 242255Z 17016G25KT 28/18 A2986 RMK A01 T02760175  RH  057%=      5-min Rain = 0
KOES 242300Z 17019G29KT 27/17 A2986 RMK A01 T02740174  RH  057%=      5-min Rain = 0
KOES 242305Z 17018G27KT 27/18 A2986 RMK A01 T02730175  RH  058%=      5-min Rain = 0
KOES 242310Z 16017G26KT 27/18 A2986 RMK A01 T02720177  RH  059%=      5-min Rain = 0
KOES 242315Z 16017G26KT 27/18 A2986 RMK A01 T02730177  RH  059%=      5-min Rain = 0
KOES 242320Z 16019G26KT 27/18 A2987 RMK A01 T02700177  RH  060%=      5-min Rain = 0
KOES 242325Z 16020G29KT 27/18 A2987 RMK A01 T02670176  RH  060%=      5-min Rain = 0
KOES 242330Z 16021G32KT 27/17 A2987 RMK A01 T02660174  RH  060%=      5-min Rain = 0
KOES 242335Z 17020G28KT 26/17 A2987 RMK A01 T02630174  RH  061%=      5-min Rain = 0
KOES 242340Z 16020G29KT 26/17 A2987 RMK A01 T02620174  RH  062%=      5-min Rain = 0
KOES 242345Z 16021G30KT 26/17 A2987 RMK A01 T02600173  RH  062%=      5-min Rain = 0
KOES 242350Z 16021G27KT 26/17 A2987 RMK A01 T02590173  RH  062%=      5-min Rain = 0
KOES 242355Z 16018G31KT 26/17 A2986 RMK A01 T02580173  RH  062%=      5-min Rain = 0
KOES 250000Z 17020G31KT 26/17 A2986 RMK A01 T02570171  RH  062%=      5-min Rain = 0
KOES 250005Z 17019G26KT 26/17 A2986 RMK A01 T02570170  RH  061%=      5-min Rain = 0
KOES 250010Z 17021G29KT 26/17 A2986 RMK A01 T02560169  RH  062%=      5-min Rain = 0
KOES 250015Z 16019G32KT 26/17 A2986 RMK A01 T02550168  RH  062%=      5-min Rain = 0
KOES 250020Z 16018G25KT 26/17 A2986 RMK A01 T02550168  RH  062%=      5-min Rain = 0
KOES 250025Z 16016G24KT 26/17 A2986 RMK A01 T02560168  RH  061%=      5-min Rain = 0
KOES 250030Z 16018G26KT 26/17 A2986 RMK A01 T02550166  RH  061%=      5-min Rain = 0
KOES 250035Z 17018G29KT 25/17 A2987 RMK A01 T02540166  RH  061%=      5-min Rain = 0
KOES 250040Z 16020G29KT 25/17 A2987 RMK A01 T02530165  RH  061%=      5-min Rain = 0
KOES 250045Z 16018G28KT 25/16 A2987 RMK A01 T02530164  RH  061%=      5-min Rain = 0
KOES 250050Z 16020G27KT 25/16 A2987 RMK A01 T02520163  RH  061%=      5-min Rain = 0
KOES 250055Z 17017G23KT 25/16 A2987 RMK A01 T02510164  RH  061%=      5-min Rain = 0
KOES 250100Z 17018G25KT 25/16 A2987 RMK A01 T02500163  RH  062%=      5-min Rain = 0
KOES 250105Z 16016G24KT 25/16 A2987 RMK A01 T02490164  RH  062%=      5-min Rain = 0
KOES 250110Z 16017G24KT 25/16 A2987 RMK A01 T02470163  RH  062%=      5-min Rain = 0
KOES 250115Z 16015G25KT 25/16 A2987 RMK A01 T02460163  RH  063%=      5-min Rain = 0
KOES 250120Z 16013G19KT 25/16 A2987 RMK A01 T02450164  RH  064%=      5-min Rain = 0
KOES 250125Z 16014G22KT 24/16 A2987 RMK A01 T02430164  RH  064%=      5-min Rain = 0
KOES 250130Z 16013G18KT 24/16 A2987 RMK A01 T02420164  RH  065%=      5-min Rain = 0
KOES 250135Z 17012G17KT 24/16 A2987 RMK A01 T02410164  RH  065%=      5-min Rain = 0
KOES 250140Z 17011G16KT 24/16 A2987 RMK A01 T02400164  RH  066%=      5-min Rain = 0
KOES 250145Z 17013G20KT 24/16 A2988 RMK A01 T02390164  RH  066%=      5-min Rain = 0
KOES 250150Z 17012G18KT 24/16 A2988 RMK A01 T02380164  RH  066%=      5-min Rain = 0
KOES 250155Z 17011G17KT 24/16 A2989 RMK A01 T02370164  RH  067%=      5-min Rain = 0
KOES 250200Z 17011G16KT 24/17 A2989 RMK A01 T02360165  RH  067%=      5-min Rain = 0
KOES 250205Z 17010KT 24/17 A2989 RMK A01 T02350165  RH  068%=      5-min Rain = 0
KOES 250210Z 17008G13KT 23/17 A2989 RMK A01 T02340165  RH  069%=      5-min Rain = 0
KOES 250215Z 17007KT 23/17 A2989 RMK A01 T02320165  RH  069%=      5-min Rain = 0
KOES 250220Z 17007KT 23/17 A299 RMK A01 T02310165  RH  069%=      5-min Rain = 0
KOES 250225Z 17006KT 23/16 A299 RMK A01 T02310164  RH  069%=      5-min Rain = 0
KOES 250230Z 17007KT 23/16 A2991 RMK A01 T02300164  RH  070%=      5-min Rain = 0
KOES 250235Z 17006G11KT 23/17 A2991 RMK A01 T02290165  RH  070%=      5-min Rain = 0
KOES 250240Z 16007KT 23/16 A2992 RMK A01 T02280164  RH  071%=      5-min Rain = 0
KOES 250245Z 17007KT 23/16 A2992 RMK A01 T02280164  RH  071%=      5-min Rain = 0
KOES 250250Z 16006KT 23/16 A2992 RMK A01 T02270164  RH  071%=      5-min Rain = 0
KOES 250255Z 16007KT 23/16 A2992 RMK A01 T02260163  RH  071%=      5-min Rain = 0
KOES 250300Z 15007KT 23/16 A2993 RMK A01 T02270163  RH  071%=      5-min Rain = 0
KOES 250305Z 16007KT 23/16 A2993 RMK A01 T02260163  RH  071%=      5-min Rain = 0
KOES 250310Z 16007KT 23/16 A2994 RMK A01 T02250162  RH  071%=      5-min Rain = 0
KOES 250315Z 16007KT 22/16 A2994 RMK A01 T02240162  RH  071%=      5-min Rain = 0
KOES 250320Z 17007KT 22/16 A2994 RMK A01 T02240162  RH  071%=      5-min Rain = 0
KOES 250325Z 17008KT 22/16 A2994 RMK A01 T02240161  RH  071%=      5-min Rain = 0
KOES 250330Z 17008KT 22/16 A2995 RMK A01 T02240161  RH  071%=      5-min Rain = 0
KOES 250335Z 17008KT 22/16 A2995 RMK A01 T02240161  RH  071%=      5-min Rain = 0
KOES 250340Z 17008KT 22/16 A2995 RMK A01 T02240162  RH  071%=      5-min Rain = 0
KOES 250345Z 16009KT 23/16 A2995 RMK A01 T02250162  RH  071%=      5-min Rain = 0
KOES 250350Z 16009KT 23/16 A2995 RMK A01 T02260162  RH  071%=      5-min Rain = 0
KOES 250355Z 16009KT 23/16 A2995 RMK A01 T02260162  RH  071%=      5-min Rain = 0
KOES 250400Z 17008KT 23/16 A2996 RMK A01 T02250162  RH  071%=      5-min Rain = 0
KOES 250405Z 17009G14KT 22/16 A2996 RMK A01 T02240162  RH  071%=      5-min Rain = 0
KOES 250410Z 17008KT 22/16 A2996 RMK A01 T02240163  RH  072%=      5-min Rain = 0
KOES 250415Z 17007KT 22/16 A2996 RMK A01 T02230163  RH  072%=      5-min Rain = 0
KOES 250420Z 16008KT 22/16 A2996 RMK A01 T02230163  RH  072%=      5-min Rain = 0
KOES 250425Z 16007KT 22/16 A2996 RMK A01 T02220163  RH  073%=      5-min Rain = 0
KOES 250430Z 16007KT 22/16 A2996 RMK A01 T02210164  RH  074%=      5-min Rain = 0
KOES 250435Z 15007KT 22/16 A2996 RMK A01 T02200164  RH  074%=      5-min Rain = 0
KOES 250440Z 15007KT 22/16 A2996 RMK A01 T02190164  RH  074%=      5-min Rain = 0
KOES 250445Z 15007KT 22/16 A2996 RMK A01 T02180164  RH  075%=      5-min Rain = 0
KOES 250450Z 15007KT 22/16 A2997 RMK A01 T02170164  RH  075%=      5-min Rain = 0
KOES 250455Z 14006KT 22/16 A2997 RMK A01 T02160164  RH  076%=      5-min Rain = 0

Page generated in 0.0091 seconds.